x

Gulf Of Maine - 78 Nm East Of Portsmouth, Nh (44005) Wave Buoy

7:50 - Sat 19th Apr 2014 All times are EDT. -4 hours from GMT.

  • Sig Wave height 5.2ft
  • Peak Period 8s
  • Average Period 7s
  • Wind
    11mph, 13mph gusts
  • Sea Temp 41°f
  • Aire Temp 40°f
  • Sea Pressure 1021.2mb
  • Gulf Of Maine - 78 Nm East Of Portsmouth, Nh
  • Gulf Of Maine - 78 Nm East Of Portsmouth, Nh

More Historic Weather Station data

Upgrade to MSW Pro to gain access to the past 30 days of data for over 8000 Wavebouys and Weather Stations around the globe.

Join Pro

Comparision Forecast

View Surf forecast
   
sáb 04/19 7:50 5ft 8s 7s 11 13 mph 1021.2mb 41f 40f
6:50 5.5ft 9s 7s 13 16 mph 1021.4mb 41f 40f
5:50 5ft 8s 7s 13 16 mph 1021.3mb 41f 40f
4:50 5ft 9s 7s 11
mph
1021mb 41f 40f
3:50 6ft 9s 8s 11 13 mph 1021.5mb 41f 40f
2:50 5.5ft 10s 7s 9 11 mph 1021.8mb 41f 39f
1:50 5ft 9s 7s 9 11 mph 1022.6mb 41f 39f
12:50 6ft 10s 7s 11 13 mph 1023.9mb 41f 39f
vie 04/18 11:50 6ft 10s 7s 7 9 mph 1024.6mb 41f 39f
10:50 6ft 10s 7s 7
mph
1025.3mb 41f 39f
9:50 6.5ft 9s 7s 7 9 mph 1025.8mb 41f 39f
8:50 7ft 8s 7s 9
mph
1026.1mb 41f 38f
7:50 7ft 8s 7s 4 7 mph 1027.2mb 41f 38f
6:50 8ft 9s 7s 7 9 mph 1027.4mb 41f 38f
5:50 7ft 10s 7s 4 7 mph 1028.4mb 41f 38f
4:50 7ft 9s 7s 7 9 mph 1029.5mb 41f 38f
3:50 6ft 9s 7s 9 11 mph 1030.3mb 41f 38f
2:50 5.5ft 9s 6s 9 13 mph 1030.8mb 41f 37f
1:50 5.5ft 7s 6s 13 16 mph 1031.4mb 41f 37f
12:50 5.5ft 9s 6s 11 13 mph 1032.3mb 41f 37f
11:50 5.5ft 9s 6s 9 13 mph 1034.6mb 41f 37f
10:50 5.5ft 9s 5s 13 18 mph 1034.6mb 41f 37f
9:50 6ft 8s 6s 16 20 mph 1034.6mb 41f 37f
8:50 6ft 9s 6s 18 20 mph 1034.6mb 40f 37f
7:50 5.5ft 8s 6s 20 22 mph 1034.5mb 40f 38f
6:50 6ft 8s 7s 13 18 mph 1036.5mb 40f 38f
5:50 5ft 8s 6s 11 16 mph 1037.1mb 40f 38f
4:50 4.5ft 8s 6s 13 16 mph 1036.9mb 40f 38f
3:50 4ft 8s 5s 13 16 mph 1036.6mb 40f 38f
2:50 3.5ft 9s 5s 13 16 mph 1036.7mb 40f 38f
1:50 4ft 7s 5s 13 16 mph 1037mb 40f 38f
12:50 4.5ft 6s 5s 11 13 mph 1038.1mb 40f 38f
jue 04/17 11:50 4.5ft 7s 5s 11
mph
1039.1mb 41f 37f
10:50 4.5ft 7s 5s 13 16 mph 1040mb 40f 38f
9:50  -   -   -  11 13 mph 1040.6mb 40f 37f
8:50 5ft 7s 5s 11 13 mph 1041.1mb 40f 37f
7:50 4.5ft 6s 5s 11 16 mph 1041.1mb 41f 37f
6:50 5ft 7s 6s 13 16 mph 1041.3mb 41f 36f
5:50 5ft 7s 5s 13 16 mph - 41f 36f
4:50 5.5ft 7s 5s 16 18 mph - 41f 36f
3:50 5ft 6s 5s 18 20 mph 1041.9mb 41f 35f
2:50 5.5ft 6s 5s 20 25 mph 1041.8mb 41f 35f
1:50 5.5ft 7s 5s 20 27 mph 1042.2mb 41f 35f
12:50 5.5ft 6s 5s 20 25 mph 1042.5mb 41f 35f
11:50 5ft 6s 5s 20 25 mph 1042.9mb 40f 35f
10:50 5.5ft 6s 5s 20 25 mph 1042.9mb 40f 35f
9:50 5.5ft 6s 5s 20 27 mph 1043mb 40f 34f
8:50 5ft 5s 5s 22 27 mph 1042.5mb 40f 34f
7:50 6.5ft 6s 5s 25 27 mph 1041.8mb 40f 33f
6:50 6ft 5s 5s 25 29 mph 1041.4mb 40f 33f
5:50 6ft 6s 5s 22 29 mph 1040.5mb 40f 32f
4:50 6ft 6s 5s 22 27 mph 1039.9mb 40f 32f
3:50 6ft 10s 5s 22 27 mph 1039mb 40f 31f
2:50 6ft 10s 5s 22 29 mph 1038.2mb 40f 32f
1:50 6ft 11s 5s 25 29 mph 1037.3mb 40f 32f
12:50 5ft 10s 5s 25 27 mph 1036.6mb 40f 34f
mié 04/16 11:50 5ft 11s 5s 22 27 mph 1036mb 40f 35f
10:50 5ft 11s 5s 20 22 mph 1035.1mb 40f 36f
9:50 5ft 12s 5s 20 22 mph 1034.4mb 40f 37f
8:50 5ft 11s 6s 18 22 mph 1033.7mb 40f 37f
7:50 6ft 11s 6s 20 22 mph 1031.6mb 41f 37f
6:50 6ft 11s 6s 22 25 mph 1030.7mb 41f 38f
5:50 7ft 11s 6s 20 27 mph 1029.8mb 41f 38f
4:50 6.5ft 12s 6s 16 20 mph 1028.9mb 41f 37f
3:50 7ft 11s 6s 16 22 mph 1027.7mb 41f 36f
2:50 8ft 11s 6s 20 25 mph 1026.8mb 41f 35f
1:50 7.5ft 10s 6s 25 31 mph 1025.3mb 41f 34f
12:50 7.5ft 6s 5s 27 34 mph 1023.9mb 41f 34f
11:50  -   -   -  27 31 mph 1022.7mb 41f 33f
10:50 8ft 7s 6s 29 34 mph 1021.3mb 41f 32f
9:50 8ft 6s 6s 29 36 mph 1020.1mb 41f 33f
8:50 10ft 7s 6s 34 40 mph 1017.7mb 41f 33f
7:50 9ft 6s 6s 27 34 mph 1015.3mb 41f 32f
6:50  -   -   -  29 36 mph 1013.5mb 41f 33f
4:50 8.5ft 9s 6s 25 31 mph 1008.5mb 41f 37f
3:50 8ft 9s 6s 27 34 mph 1006.3mb 41f 38f
2:50 9ft 8s 6s 29 38 mph 1006mb 41f 40f
1:50 9ft 9s 6s 25 31 mph 1004mb 41f 42f
12:50 9.5ft 8s 6s 25 29 mph 1002mb 41f 47f
mar 04/15 11:50 8.5ft 8s 6s 27 34 mph 1001mb 41f 48f
10:50 8.5ft 7s 6s 29 36 mph 1002.1mb 41f 49f
9:50 10ft 8s 6s 27 31 mph 1002.9mb 41f 48f
8:50 9ft 7s 6s 31 40 mph 1003mb 41f 50f
7:50 8.5ft 8s 6s 22 25 mph 1004.2mb 41f 47f
6:50 9ft 8s 6s 29 34 mph 1004.1mb 41f 49f
5:50 9.5ft 8s 6s 27 31 mph 1004.4mb 41f 48f
4:50 8ft 7s 5s 29 34 mph 1005.1mb 41f 49f
3:50 7ft 7s 5s 27 34 mph 1005.5mb 41f 48f
2:50 7ft 7s 5s 27 31 mph 1006.5mb 41f 49f
1:50 6ft 6s 5s 25 29 mph 1007.3mb 41f 48f
12:50 6ft 7s 5s 25 27 mph 1008.2mb 41f 47f